createdAt,value
2022-08-17T00:00:42.959Z,18.37
2022-08-17T00:03:22.433Z,18.21
2022-08-17T00:05:54.781Z,18.34
2022-08-17T00:08:26.955Z,18.43
2022-08-17T00:10:56.930Z,18.40
2022-08-17T00:13:34.435Z,18.21
2022-08-17T00:16:08.589Z,18.08
2022-08-17T00:18:56.774Z,17.90
2022-08-17T00:21:36.123Z,17.87
2022-08-17T00:24:18.636Z,17.85
2022-08-17T00:26:48.108Z,18.01
2022-08-17T00:29:19.938Z,18.01
2022-08-17T00:31:51.750Z,17.85
2022-08-17T00:34:20.812Z,17.63
2022-08-17T00:36:49.876Z,17.64
2022-08-17T00:39:18.939Z,17.63
2022-08-17T00:41:48.045Z,17.66
2022-08-17T00:44:17.187Z,17.91
2022-08-17T00:46:47.899Z,17.87
2022-08-17T00:49:19.560Z,17.73
2022-08-17T00:51:53.032Z,17.69
2022-08-17T00:54:26.285Z,17.60
2022-08-17T00:57:00.634Z,17.53
2022-08-17T00:59:32.735Z,17.36
2022-08-17T01:02:02.506Z,17.39
2022-08-17T01:04:34.057Z,17.71
2022-08-17T01:07:04.610Z,17.83
2022-08-17T01:09:34.643Z,17.61
2022-08-17T01:12:06.576Z,17.49
2022-08-17T01:14:38.077Z,17.50
2022-08-17T01:17:08.427Z,17.60
2022-08-17T01:19:41.859Z,17.72
2022-08-17T01:22:21.243Z,17.69
2022-08-17T01:24:54.080Z,17.56
2022-08-17T01:27:24.422Z,17.45
2022-08-17T01:29:58.553Z,17.41
2022-08-17T01:32:30.296Z,17.46
2022-08-17T01:35:00.639Z,17.33
2022-08-17T01:37:33.391Z,17.23
2022-08-17T01:40:07.358Z,17.16
2022-08-17T01:42:42.848Z,17.10
2022-08-17T01:45:16.691Z,17.05
2022-08-17T01:47:45.845Z,17.10
2022-08-17T01:50:18.134Z,17.20
2022-08-17T01:52:51.365Z,17.28
2022-08-17T01:55:27.527Z,17.41
2022-08-17T01:57:56.806Z,17.28
2022-08-17T02:00:26.223Z,17.16
2022-08-17T02:03:15.767Z,17.12
2022-08-17T02:05:45.045Z,16.98
2022-08-17T02:08:19.906Z,16.98
2022-08-17T02:10:50.428Z,16.98
2022-08-17T02:13:21.237Z,17.04
2022-08-17T02:15:50.560Z,17.12
2022-08-17T02:18:19.693Z,17.18
2022-08-17T02:20:48.728Z,17.10
2022-08-17T02:23:19.870Z,16.98
2022-08-17T02:25:50.093Z,16.88
2022-08-17T02:28:19.703Z,16.81
2022-08-17T02:30:59.553Z,16.80
2022-08-17T02:33:42.678Z,16.77
2022-08-17T02:36:13.536Z,16.84
2022-08-17T02:38:44.454Z,16.92
2022-08-17T02:41:13.821Z,17.00
2022-08-17T02:43:43.182Z,17.04
2022-08-17T02:46:12.919Z,17.11
2022-08-17T02:48:42.001Z,17.13
2022-08-17T02:51:11.166Z,17.01
2022-08-17T02:53:40.667Z,16.87
2022-08-17T02:56:11.124Z,16.91
2022-08-17T02:58:40.352Z,16.85
2022-08-17T03:01:12.635Z,16.78
2022-08-17T03:03:42.648Z,16.76
2022-08-17T03:06:12.022Z,16.78
2022-08-17T03:08:41.104Z,16.90
2022-08-17T03:11:11.970Z,16.92
2022-08-17T03:13:41.349Z,16.88
2022-08-17T03:16:10.657Z,16.80
2022-08-17T03:18:39.754Z,16.69
2022-08-17T03:21:09.558Z,16.60
2022-08-17T03:23:41.061Z,16.51
2022-08-17T03:26:15.557Z,16.56
2022-08-17T03:28:45.449Z,16.56
2022-08-17T03:31:14.643Z,16.63
2022-08-17T03:33:43.943Z,16.66
2022-08-17T03:36:13.070Z,16.54
2022-08-17T03:38:42.114Z,16.48
2022-08-17T03:41:13.925Z,16.42
2022-08-17T03:43:43.089Z,16.38
2022-08-17T03:46:34.497Z,16.30
2022-08-17T03:49:23.589Z,16.26
2022-08-17T03:52:10.534Z,16.26
2022-08-17T03:54:57.919Z,16.25
2022-08-17T03:57:29.136Z,16.11
2022-08-17T03:59:58.466Z,16.11
2022-08-17T04:02:31.605Z,16.01
2022-08-17T04:05:01.059Z,16.03
2022-08-17T04:07:31.797Z,16.09
2022-08-17T04:10:01.399Z,16.18
2022-08-17T04:12:45.956Z,16.22
2022-08-17T04:15:15.379Z,16.26
2022-08-17T04:17:45.799Z,16.23
2022-08-17T04:20:17.346Z,16.25
2022-08-17T04:22:58.642Z,16.23
2022-08-17T04:25:28.279Z,16.31
2022-08-17T04:27:59.406Z,16.32
2022-08-17T04:30:30.277Z,16.40
2022-08-17T04:33:06.143Z,16.44
2022-08-17T04:35:38.475Z,16.47
2022-08-17T04:38:09.177Z,16.53
2022-08-17T04:40:56.055Z,16.60
2022-08-17T04:43:28.761Z,16.53
2022-08-17T04:46:00.623Z,16.58
2022-08-17T04:48:36.096Z,16.50
2022-08-17T04:51:09.939Z,16.48
2022-08-17T04:53:40.487Z,16.52
2022-08-17T04:56:16.027Z,16.62
2022-08-17T04:58:49.860Z,16.65
2022-08-17T05:01:24.009Z,16.71
2022-08-17T05:03:54.302Z,16.64
2022-08-17T05:06:24.209Z,16.76
2022-08-17T05:08:54.138Z,16.80
2022-08-17T05:11:25.502Z,16.89
2022-08-17T05:13:57.132Z,16.98
2022-08-17T05:16:28.403Z,17.11
2022-08-17T05:18:58.558Z,17.22
2022-08-17T05:21:29.702Z,17.33
2022-08-17T05:23:59.525Z,17.54
2022-08-17T05:26:29.473Z,17.63
2022-08-17T05:29:02.725Z,17.80
2022-08-17T05:31:32.637Z,18.01
2022-08-17T05:34:02.214Z,18.14
2022-08-17T05:36:41.707Z,18.19
2022-08-17T05:39:17.414Z,18.18
2022-08-17T05:41:51.528Z,18.31
2022-08-17T05:44:23.947Z,18.64
2022-08-17T05:46:54.514Z,18.77
2022-08-17T05:49:28.808Z,19.16
2022-08-17T05:52:24.658Z,19.29
2022-08-17T05:55:06.704Z,19.33
2022-08-17T05:57:56.116Z,19.46
2022-08-17T06:00:31.050Z,19.65
2022-08-17T06:03:25.571Z,19.96
2022-08-17T06:06:10.619Z,20.38
2022-08-17T06:08:48.836Z,20.90
2022-08-17T06:11:30.932Z,21.10
2022-08-17T06:14:25.947Z,21.39
2022-08-17T06:17:01.882Z,20.83
2022-08-17T06:19:39.494Z,21.06
2022-08-17T06:22:12.453Z,21.24
2022-08-17T06:24:46.985Z,20.97
2022-08-17T06:27:24.384Z,21.14
2022-08-17T06:29:58.554Z,21.89
2022-08-17T06:32:29.522Z,22.13
2022-08-17T06:35:01.208Z,22.28
2022-08-17T06:37:48.635Z,21.75
2022-08-17T06:40:37.495Z,22.43
2022-08-17T06:43:21.418Z,22.42
2022-08-17T06:45:58.725Z,22.46
2022-08-17T06:48:38.727Z,22.40
2022-08-17T06:51:15.771Z,22.28
2022-08-17T06:53:49.534Z,22.47
2022-08-17T06:56:53.781Z,22.16
2022-08-17T06:59:22.306Z,23.00
2022-08-17T07:01:52.694Z,23.02
2022-08-17T07:04:27.152Z,22.72
2022-08-17T07:07:01.618Z,22.71
2022-08-17T07:09:36.862Z,23.15
2022-08-17T07:12:16.113Z,23.17
2022-08-17T07:14:51.463Z,22.81
2022-08-17T07:17:22.399Z,23.08
2022-08-17T07:20:17.718Z,23.69
2022-08-17T07:23:00.069Z,23.82
2022-08-17T07:25:31.218Z,23.58
2022-08-17T07:28:05.965Z,24.55
2022-08-17T07:30:45.589Z,24.09
2022-08-17T07:33:20.220Z,24.27
2022-08-17T07:35:51.236Z,24.48
2022-08-17T07:38:24.842Z,24.77
2022-08-17T07:41:05.098Z,24.77
2022-08-17T07:43:36.239Z,24.80
2022-08-17T07:46:33.242Z,24.69
2022-08-17T07:49:19.095Z,25.40
2022-08-17T07:52:24.212Z,25.16
2022-08-17T07:54:51.841Z,25.63
2022-08-17T07:57:33.616Z,25.69
2022-08-17T08:00:19.417Z,25.36
2022-08-17T08:03:14.895Z,25.26
2022-08-17T08:05:53.652Z,25.45
2022-08-17T08:08:44.246Z,25.91
2022-08-17T08:11:16.178Z,25.80
2022-08-17T08:13:46.807Z,25.79
2022-08-17T08:16:29.149Z,25.94
2022-08-17T08:19:00.773Z,25.45
2022-08-17T08:21:37.720Z,25.63
2022-08-17T08:24:38.510Z,25.80
2022-08-17T08:27:18.347Z,25.98
2022-08-17T08:29:53.903Z,25.92
2022-08-17T08:32:37.188Z,26.36
2022-08-17T08:35:11.358Z,26.46
2022-08-17T08:37:52.776Z,26.76
2022-08-17T08:40:38.307Z,26.26
2022-08-17T08:43:22.000Z,26.16
2022-08-17T08:45:58.635Z,26.60
2022-08-17T08:49:00.871Z,26.88
2022-08-17T08:51:46.942Z,26.61
2022-08-17T08:54:33.493Z,26.62
2022-08-17T08:57:29.054Z,27.11
2022-08-17T09:00:12.783Z,26.63
2022-08-17T09:03:07.481Z,27.03
2022-08-17T09:06:00.335Z,27.07
2022-08-17T09:08:36.193Z,26.86
2022-08-17T09:11:12.499Z,27.07
2022-08-17T09:13:54.697Z,27.60
2022-08-17T09:16:29.997Z,27.49
2022-08-17T09:19:06.929Z,27.74
2022-08-17T09:21:48.360Z,27.70
2022-08-17T09:24:26.164Z,27.69
2022-08-17T09:27:01.891Z,28.22
2022-08-17T09:29:36.905Z,28.09
2022-08-17T09:32:17.607Z,27.60
2022-08-17T09:34:52.728Z,28.67
2022-08-17T09:37:28.569Z,28.48
2022-08-17T09:40:09.443Z,28.57
2022-08-17T09:42:50.993Z,27.82
2022-08-17T09:45:32.965Z,28.76
2022-08-17T09:48:09.654Z,28.85
2022-08-17T09:51:03.894Z,29.25
2022-08-17T09:53:34.058Z,28.96
2022-08-17T09:56:15.089Z,28.87
2022-08-17T09:59:03.353Z,29.62
2022-08-17T10:01:39.745Z,28.63
2022-08-17T10:04:34.789Z,29.55
2022-08-17T10:07:08.401Z,29.50
2022-08-17T10:09:57.621Z,29.33
2022-08-17T10:12:36.602Z,28.43
2022-08-17T10:15:22.414Z,29.46
2022-08-17T10:18:09.693Z,29.29
2022-08-17T10:20:47.535Z,29.96
2022-08-17T10:23:41.191Z,29.39
2022-08-17T10:26:14.501Z,30.52
2022-08-17T10:28:50.693Z,30.23
2022-08-17T10:31:35.673Z,29.14
2022-08-17T10:34:41.119Z,30.23
2022-08-17T10:37:28.324Z,29.82
2022-08-17T10:40:13.328Z,28.40
2022-08-17T10:42:48.961Z,28.50
2022-08-17T10:45:23.423Z,29.12
2022-08-17T10:48:05.687Z,29.41
2022-08-17T10:50:58.551Z,28.87
2022-08-17T10:53:53.597Z,28.43
2022-08-17T10:56:26.096Z,28.57
2022-08-17T10:58:57.932Z,28.76
2022-08-17T11:01:58.237Z,28.78
2022-08-17T11:04:47.762Z,28.22
2022-08-17T11:07:31.915Z,28.34
2022-08-17T11:10:23.748Z,28.09
2022-08-17T11:13:01.887Z,27.93
2022-08-17T11:15:50.786Z,28.43
2022-08-17T11:18:42.800Z,28.51
2022-08-17T11:21:39.221Z,28.17
2022-08-17T11:24:20.366Z,28.73
2022-08-17T11:27:05.997Z,29.51
2022-08-17T11:29:51.977Z,29.11
2022-08-17T11:32:47.120Z,29.39
2022-08-17T11:35:35.193Z,29.09
2022-08-17T11:38:17.814Z,29.24
2022-08-17T11:41:14.365Z,28.48
2022-08-17T11:44:05.917Z,28.24
2022-08-17T11:47:08.053Z,28.09
2022-08-17T11:50:15.090Z,27.94
2022-08-17T11:52:46.955Z,28.25
2022-08-17T11:55:50.619Z,28.42
2022-08-17T11:58:40.999Z,28.48
2022-08-17T12:01:13.603Z,28.72
2022-08-17T12:03:55.935Z,29.24
2022-08-17T12:06:49.263Z,28.74
2022-08-17T12:09:22.002Z,28.76
2022-08-17T12:12:12.800Z,29.11
2022-08-17T12:15:09.589Z,29.01
2022-08-17T12:17:42.689Z,28.46
2022-08-17T12:20:17.133Z,28.48
2022-08-17T12:22:56.431Z,28.97
2022-08-17T12:25:33.039Z,28.44
2022-08-17T12:28:06.895Z,28.84
2022-08-17T12:30:38.662Z,29.57
2022-08-17T12:33:27.936Z,28.62
2022-08-17T12:36:02.859Z,28.48
2022-08-17T12:38:34.498Z,28.85
2022-08-17T12:41:26.388Z,28.47
2022-08-17T12:44:01.620Z,28.83
2022-08-17T12:46:35.882Z,28.87
2022-08-17T12:49:23.641Z,28.56
2022-08-17T12:52:00.783Z,28.41
2022-08-17T12:54:37.686Z,28.55
2022-08-17T12:57:12.458Z,27.84
2022-08-17T12:59:48.516Z,28.26
2022-08-17T13:02:33.700Z,27.61
2022-08-17T13:05:03.323Z,28.14
2022-08-17T13:07:37.288Z,28.10
2022-08-17T13:10:06.956Z,27.69
2022-08-17T13:12:37.110Z,27.65
2022-08-17T13:15:07.743Z,27.60
2022-08-17T13:17:39.093Z,27.41
2022-08-17T13:20:15.990Z,27.49
2022-08-17T13:22:53.166Z,27.87
2022-08-17T13:25:24.035Z,27.61
2022-08-17T13:27:55.074Z,28.13
2022-08-17T13:30:29.111Z,28.30
2022-08-17T13:33:00.082Z,27.78
2022-08-17T13:35:47.104Z,28.29
2022-08-17T13:38:40.993Z,28.37
2022-08-17T13:41:30.126Z,28.43
2022-08-17T13:43:59.211Z,28.55
2022-08-17T13:46:32.148Z,28.46
2022-08-17T13:49:05.667Z,28.30
2022-08-17T13:51:42.471Z,28.51
2022-08-17T13:54:26.103Z,28.21
2022-08-17T13:57:01.463Z,28.30
2022-08-17T13:59:54.262Z,27.97
2022-08-17T14:02:28.675Z,27.98
2022-08-17T14:05:00.816Z,27.96
2022-08-17T14:07:33.772Z,27.95
2022-08-17T14:10:10.273Z,27.96
2022-08-17T14:12:41.525Z,28.01
2022-08-17T14:15:12.803Z,27.93
2022-08-17T14:17:42.095Z,27.79
2022-08-17T14:20:14.547Z,27.86
2022-08-17T14:22:48.247Z,28.03
2022-08-17T14:25:20.800Z,28.15
2022-08-17T14:27:53.375Z,28.24
2022-08-17T14:30:29.969Z,28.34
2022-08-17T14:33:02.039Z,28.27
2022-08-17T14:35:32.770Z,28.03
2022-08-17T14:38:03.074Z,27.90
2022-08-17T14:40:33.343Z,27.95
2022-08-17T14:43:02.480Z,27.92
2022-08-17T14:45:33.181Z,27.75
2022-08-17T14:48:05.618Z,27.78
2022-08-17T14:50:38.890Z,27.83
2022-08-17T14:53:09.878Z,27.96
2022-08-17T14:55:40.733Z,28.08
2022-08-17T14:58:10.266Z,27.92
2022-08-17T15:00:40.836Z,28.24
2022-08-17T15:03:11.576Z,27.96
2022-08-17T15:05:44.113Z,27.71
2022-08-17T15:08:13.340Z,27.71
2022-08-17T15:10:42.610Z,27.84
2022-08-17T15:13:19.169Z,27.88
2022-08-17T15:15:49.309Z,27.84
2022-08-17T15:18:18.966Z,28.16
2022-08-17T15:20:50.433Z,28.20
2022-08-17T15:23:23.415Z,27.87
2022-08-17T15:25:54.728Z,27.87
2022-08-17T15:28:25.029Z,27.62
2022-08-17T15:30:56.069Z,27.74
2022-08-17T15:33:30.577Z,27.64
2022-08-17T15:36:06.822Z,27.50
2022-08-17T15:38:44.497Z,27.42
2022-08-17T15:41:18.614Z,27.39
2022-08-17T15:43:51.478Z,27.37
2022-08-17T15:46:23.570Z,27.30
2022-08-17T15:48:59.884Z,27.34
2022-08-17T15:51:34.348Z,27.36
2022-08-17T15:54:22.889Z,27.41
2022-08-17T15:56:54.159Z,27.25
2022-08-17T15:59:24.955Z,27.21
2022-08-17T16:03:15.145Z,27.32
2022-08-17T16:04:45.638Z,27.29
2022-08-17T16:07:26.425Z,27.25
2022-08-17T16:09:55.978Z,27.24
2022-08-17T16:12:25.272Z,27.18
2022-08-17T16:14:56.779Z,27.23
2022-08-17T16:17:39.583Z,27.39
2022-08-17T16:20:20.317Z,27.50
2022-08-17T16:22:54.261Z,27.29
2022-08-17T16:25:38.801Z,27.49
2022-08-17T16:28:20.833Z,27.27
2022-08-17T16:30:51.802Z,27.13
2022-08-17T16:33:21.425Z,26.94
2022-08-17T16:35:52.444Z,26.82
2022-08-17T16:38:24.896Z,26.76
2022-08-17T16:41:00.025Z,26.58
2022-08-17T16:43:30.143Z,26.57
2022-08-17T16:46:00.753Z,26.51
2022-08-17T16:48:30.235Z,26.32
2022-08-17T16:51:04.019Z,26.32
2022-08-17T16:53:35.213Z,26.16
2022-08-17T16:56:07.596Z,26.06
2022-08-17T16:58:40.964Z,25.99
2022-08-17T17:01:11.526Z,26.01
2022-08-17T17:03:44.831Z,25.98
2022-08-17T17:06:21.146Z,26.03
2022-08-17T17:08:58.487Z,25.91
2022-08-17T17:11:33.615Z,25.87
2022-08-17T17:14:10.470Z,25.87
2022-08-17T17:16:45.996Z,25.61
2022-08-17T17:19:27.727Z,25.62
2022-08-17T17:22:16.304Z,25.57
2022-08-17T17:24:56.732Z,25.57
2022-08-17T17:27:34.468Z,25.53
2022-08-17T17:30:12.954Z,25.44
2022-08-17T17:32:49.708Z,25.34
2022-08-17T17:35:25.357Z,25.32
2022-08-17T17:37:58.356Z,25.19
2022-08-17T17:40:37.215Z,25.19
2022-08-17T17:43:34.813Z,25.10
2022-08-17T17:46:26.386Z,25.03
2022-08-17T17:48:51.008Z,24.91
2022-08-17T17:52:09.202Z,24.85
2022-08-17T17:54:32.501Z,24.75
2022-08-17T17:57:09.834Z,24.74
2022-08-17T17:59:46.254Z,24.68
2022-08-17T18:02:51.767Z,24.57
2022-08-17T18:06:00.579Z,24.57
2022-08-17T18:08:45.195Z,24.49
2022-08-17T18:11:35.293Z,24.38
2022-08-17T18:14:18.817Z,24.39
2022-08-17T18:16:55.048Z,24.31
2022-08-17T18:19:29.827Z,24.26
2022-08-17T18:22:08.295Z,24.19
2022-08-17T18:24:47.550Z,24.17
2022-08-17T18:27:28.933Z,24.06
2022-08-17T18:30:08.615Z,24.03
2022-08-17T18:32:43.784Z,24.05
2022-08-17T18:35:35.191Z,24.03
2022-08-17T18:38:29.767Z,23.98
2022-08-17T18:41:05.348Z,23.93
2022-08-17T18:43:52.670Z,23.70
2022-08-17T18:46:51.057Z,23.41
2022-08-17T18:49:33.689Z,23.37
2022-08-17T18:52:18.998Z,23.43
2022-08-17T18:55:13.453Z,23.58
2022-08-17T18:57:45.297Z,23.66
2022-08-17T19:00:18.109Z,23.12
2022-08-17T19:02:56.289Z,22.45
2022-08-17T19:05:34.497Z,22.00
2022-08-17T19:08:22.647Z,21.32
2022-08-17T19:11:06.363Z,20.83
2022-08-17T19:13:40.984Z,20.16
2022-08-17T19:16:18.981Z,19.72
2022-08-17T19:18:57.898Z,19.71
2022-08-17T19:21:33.883Z,19.77
2022-08-17T19:24:10.113Z,19.81
2022-08-17T19:26:54.854Z,19.79
2022-08-17T19:29:30.998Z,19.77
2022-08-17T19:32:00.641Z,19.78
2022-08-17T19:34:35.513Z,19.61
2022-08-17T19:37:13.197Z,19.60
2022-08-17T19:39:49.838Z,19.54
2022-08-17T19:42:32.974Z,19.58
2022-08-17T19:45:08.119Z,19.50
2022-08-17T19:47:55.063Z,19.68
2022-08-17T19:50:38.431Z,19.56
2022-08-17T19:53:18.963Z,19.69
2022-08-17T19:55:59.003Z,19.62
2022-08-17T19:58:49.430Z,19.62
2022-08-17T20:01:42.503Z,19.58
2022-08-17T20:04:17.272Z,19.54
2022-08-17T20:06:50.367Z,19.57
2022-08-17T20:09:33.442Z,19.45
2022-08-17T20:12:08.718Z,19.51
2022-08-17T20:14:53.457Z,19.53
2022-08-17T20:17:31.469Z,19.51
2022-08-17T20:20:08.163Z,19.50
2022-08-17T20:22:55.285Z,19.49
2022-08-17T20:25:33.497Z,19.47
2022-08-17T20:28:16.937Z,19.44
2022-08-17T20:30:46.513Z,19.49
2022-08-17T20:33:27.221Z,19.46
2022-08-17T20:36:12.797Z,19.49
2022-08-17T20:38:49.463Z,19.42
2022-08-17T20:41:36.963Z,19.36
2022-08-17T20:44:23.502Z,19.40
2022-08-17T20:47:06.406Z,19.46
2022-08-17T20:49:52.066Z,19.44
2022-08-17T20:52:50.746Z,19.38
2022-08-17T20:55:53.497Z,19.36
2022-08-17T20:58:47.398Z,19.32
2022-08-17T21:01:34.886Z,19.34
2022-08-17T21:04:08.317Z,19.32
2022-08-17T21:07:38.250Z,19.29
2022-08-17T21:10:52.470Z,19.16
2022-08-17T21:14:23.190Z,19.17
2022-08-17T21:22:21.226Z,19.12
2022-08-17T21:25:59.121Z,19.06
2022-08-17T21:33:51.712Z,18.96
2022-08-17T21:36:27.489Z,18.95
2022-08-17T21:39:08.707Z,18.88
2022-08-17T21:41:48.490Z,18.78
2022-08-17T21:44:30.507Z,18.74
2022-08-17T21:47:16.594Z,18.77
2022-08-17T21:49:45.884Z,18.73
2022-08-17T21:52:19.637Z,18.71
2022-08-17T21:54:52.927Z,18.71
2022-08-17T21:57:24.475Z,18.75
2022-08-17T21:59:57.858Z,18.72
2022-08-17T22:02:31.842Z,18.68
2022-08-17T22:05:04.296Z,18.66
2022-08-17T22:07:40.139Z,18.48
2022-08-17T22:10:30.512Z,18.61
2022-08-17T22:13:16.818Z,18.59
2022-08-17T22:15:49.531Z,18.58
2022-08-17T22:18:23.285Z,18.58
2022-08-17T22:20:54.499Z,18.58
2022-08-17T22:23:46.433Z,18.60
2022-08-17T22:26:18.008Z,18.55
2022-08-17T22:28:50.783Z,18.53
2022-08-17T22:31:22.015Z,18.54
2022-08-17T22:34:07.486Z,18.38
2022-08-17T22:36:38.986Z,18.41
2022-08-17T22:39:42.934Z,18.44
2022-08-17T22:42:15.894Z,18.38
2022-08-17T22:44:51.436Z,18.40
2022-08-17T22:47:38.734Z,18.35
2022-08-17T22:50:21.783Z,18.33
2022-08-17T22:53:17.340Z,18.29
2022-08-17T22:56:14.749Z,18.23
2022-08-17T22:59:08.339Z,18.17
2022-08-17T23:01:39.031Z,18.20
2022-08-17T23:04:16.072Z,18.17
2022-08-17T23:06:45.239Z,18.07
2022-08-17T23:09:14.471Z,18.11
2022-08-17T23:11:49.872Z,18.19
2022-08-17T23:14:22.408Z,18.28
2022-08-17T23:16:52.086Z,18.25
2022-08-17T23:19:22.616Z,18.25
2022-08-17T23:21:53.812Z,18.23
2022-08-17T23:24:27.644Z,18.28
2022-08-17T23:26:59.261Z,18.24
2022-08-17T23:29:29.897Z,18.18
2022-08-17T23:32:01.375Z,18.21
2022-08-17T23:34:31.200Z,18.17
2022-08-17T23:37:02.283Z,18.20
2022-08-17T23:39:31.633Z,18.18
2022-08-17T23:42:07.883Z,18.15
2022-08-17T23:44:38.451Z,18.16
2022-08-17T23:47:08.053Z,18.20
2022-08-17T23:49:37.569Z,18.15
2022-08-17T23:52:12.582Z,18.08
2022-08-17T23:54:47.583Z,18.04
2022-08-17T23:57:20.850Z,17.96
